Brattleboro, VT (05302)

10:00 PM EDT on September 17, 2014 (GMT -0400)
Weatherhead Hollow | Change Station
CLOSE
Current Station
Personal Weather Station
Location: Guilford, VT
Elevation: 736 ft
Nearby Weather Stations

Elev 736 ft 42.77 °N, 72.61 °W | Updated 5 minutes ago

Clear
Clear
46.5 °F
Feels Like 46 °F
N
0.0
Wind Variable Wind from North
Gusts 0.0 mph

Today
High -- | Low -- °F
--% Chance of Precip.
Yesterday
High -- | Low -- °F
Precip. -- in
6:32 AM 6:56 PM
Waning Crescent, 31% visible
Pressure 29.99 in
Visibility 10.0 miles
Clouds Clear
Windchill 46 °F
Dew Point 45 °F
Humidity 95%
Rainfall 0.00 in
Snow Depth Not available.
UV 0 out of 12
Pollen 4.10 out of 12
Ozone Good
Flu Activity Not available.
METAR KEEN 180155Z AUTO 00000KT 10SM CLR 08/04 A2999 RMK AO1

More Conditions Fewer Conditions

Pressure 29.99 in
Visibility 10.0 miles
Clouds Clear
Windchill 46 °F
Dew Point 45 °F
Humidity 95%
Rainfall 0.00 in
Snow Depth Not available.
UV 0 out of 12
Pollen 4.10 out of 12
Ozone Good
Flu Activity Not available.
METAR KEEN 180155Z AUTO 00000KT 10SM CLR 08/04 A2999 RMK AO1

More Conditions Fewer Conditions

10-Day Weather Forecast

Almanac

Astronomy

Sep. 17, 2014 Rise Set
Actual Time 6:32 AM EDT 6:56 PM EDT
Civil Twilight 6:04 AM EDT 7:25 PM EDT
Nautical Twilight 5:30 AM EDT 7:58 PM EDT
Astronomical Twilight 4:56 AM EDT 8:32 PM EDT
Moon 12:23 AM EDT (9/17) 3:10 PM EDT (9/17)
Length of Visible Light 13h 21m
Length of Day
12h 24m
Tomorrow will be 2m 54s shorter.
Waning Crescent, 31% of the Moon is Illuminated
Today
Waning Crescent
Sep 24
New
Oct 1
First Quarter
Oct 8
Full
Oct 15
Last Quarter

Today's Extremes

State Highs State Lows

Community

WunderPhotos

Upload Photos

1,754,263 photos uploaded!

Nearby

Air Quality

  Air Quality AQ Index Pollutant
Yesterday Good
OZONE
Current Good
OZONE
Wednesday Good
PM2.5
Wednesday Good
OZONE
Thursday Good
PM2.5
Thursday Good
OZONE
Friday Good
PM2.5
Friday Good
OZONE

Snow Depth

Station Depth Elevation
No new snow has been reported.

Earthquake Activity

City Distance Mag. Time & Date
No recent earthquake activity has been reported nearby.
Minimum magnitude displayed is 2.5.

Coastal Water Temperatures

Place Temperature
No Stations Reporting

Nearby Weather Stations